Time;durP1;ratioP1;P1;durP2;ratioP2;P2;SDS_P1;SDS_P2;PMS_P1;PMS_P2;Temp;Humidity;BMP_temperature;BMP_pressure;BME280_temperature;BME280_humidity;BME280_pressure;Samples;Min_cycle;Max_cycle;Signal;HPM_P1;HPM_P2
2022/08/05 00:01:13;;;;;;;;;3.75;3.00;;;;;22.82;60.40;100903.56;5094488;27;46113;-83
2022/08/05 00:03:39;;;;;;;;;4.00;4.00;;;;;22.86;60.27;100954.41;5075816;27;45545;-85
2022/08/05 00:06:05;;;;;;;;;4.75;4.50;;;;;22.75;59.73;100982.25;5075757;27;45531;-84
2022/08/05 00:08:30;;;;;;;;;6.75;4.75;;;;;22.71;60.08;101013.56;5094129;27;45366;-84
2022/08/05 00:10:57;;;;;;;;;6.00;5.00;;;;;22.56;60.97;101016.38;5094231;27;45374;-85
2022/08/05 00:13:23;;;;;;;;;5.50;4.75;;;;;22.60;60.96;101074.38;5094252;27;45488;-85
2022/08/05 00:15:48;;;;;;;;;6.00;5.50;;;;;22.74;61.95;101088.53;5093100;27;45487;-83
2022/08/05 00:18:13;;;;;;;;;5.00;5.00;;;;;22.63;61.69;101005.59;5093881;27;48067;-85
2022/08/05 00:20:38;;;;;;;;;5.00;4.50;;;;;22.54;61.09;101021.75;5075058;27;47860;-84
2022/08/05 00:23:04;;;;;;;;;3.00;3.00;;;;;22.63;61.82;101074.38;5075706;27;45291;-85
2022/08/05 00:25:29;;;;;;;;;4.00;3.00;;;;;22.34;61.26;101015.72;5075850;27;45305;-85
2022/08/05 00:27:54;;;;;;;;;4.50;4.00;;;;;22.38;61.56;101015.69;5075538;27;47269;-84
2022/08/05 00:30:20;;;;;;;;;4.00;4.00;;;;;22.33;61.84;101006.81;5094086;27;45417;-85
2022/08/05 00:32:45;;;;;;;;;4.00;4.00;;;;;22.30;62.55;101014.84;5094331;27;45607;-85
2022/08/05 00:35:10;;;;;;;;;4.25;4.25;;;;;22.42;61.74;101074.59;5075073;27;45463;-84
2022/08/05 00:37:36;;;;;;;;;5.00;4.25;;;;;22.24;61.24;101097.91;5093655;27;45508;-85
2022/08/05 00:40:01;;;;;;;;;4.00;4.00;;;;;22.40;62.11;101120.09;5094009;27;45578;-84
2022/08/05 00:42:35;;;;;;;;;4.25;4.00;;;;;22.40;62.59;101091.53;5094102;27;45379;-85
2022/08/05 00:45:01;;;;;;;;;4.00;4.00;;;;;22.46;61.95;101055.75;5094166;27;45393;-85
2022/08/05 00:47:27;;;;;;;;;5.75;5.25;;;;;22.24;61.57;101006.00;5094021;27;46876;-85
2022/08/05 00:49:52;;;;;;;;;5.25;5.25;;;;;22.39;61.98;101038.88;5093852;27;45935;-84
2022/08/05 00:52:18;;;;;;;;;6.50;4.00;;;;;22.17;62.04;100998.91;5093787;27;45365;-84
2022/08/05 00:54:44;;;;;;;;;4.50;4.50;;;;;22.23;62.60;101039.91;5075497;27;45559;-84
2022/08/05 00:57:10;;;;;;;;;5.00;4.00;;;;;22.33;61.50;101099.66;5093791;27;49132;-84
2022/08/05 00:59:35;;;;;;;;;4.00;4.00;;;;;22.19;62.23;101056.03;5093487;27;45370;-84
2022/08/05 01:02:01;;;;;;;;;4.00;3.00;;;;;22.17;62.28;100991.78;5093908;27;45498;-85
2022/08/05 01:04:26;;;;;;;;;5.00;4.25;;;;;22.12;63.19;101002.53;5093499;27;45590;-85
2022/08/05 01:06:51;;;;;;;;;3.50;3.00;;;;;22.14;64.48;101038.19;5093387;27;49395;-84
2022/08/05 01:09:17;;;;;;;;;4.00;4.00;;;;;22.00;63.70;101050.78;5093490;27;45358;-85
2022/08/05 01:11:45;;;;;;;;;4.00;4.00;;;;;22.02;63.64;101075.75;5093800;27;45754;-85
2022/08/05 01:14:46;;;;;;;;;4.50;4.00;;;;;22.08;63.97;101075.72;5075064;27;45652;-84
2022/08/05 01:17:42;;;;;;;;;4.00;3.50;;;;;22.07;62.97;101057.00;5093241;27;45520;-82
2022/08/05 01:20:38;;;;;;;;;3.00;3.00;;;;;22.04;62.35;101089.13;5092999;27;45866;-82
2022/08/05 01:23:20;;;;;;;;;3.75;3.00;;;;;21.86;63.08;101079.41;5074935;27;45373;-83
2022/08/05 01:25:53;;;;;;;;;2.50;2.50;;;;;21.78;63.09;101042.03;5074912;27;45473;-84
2022/08/05 01:28:24;;;;;;;;;2.25;2.25;;;;;21.94;62.60;101002.66;5078131;27;47149;-84
2022/08/05 01:31:18;;;;;;;;;2.00;2.00;;;;;21.89;62.78;100962.53;5096653;27;45481;-84
2022/08/05 01:33:49;;;;;;;;;4.75;3.00;;;;;21.82;62.48;100965.25;5096702;27;45489;-83
2022/08/05 01:36:16;;;;;;;;;3.25;3.00;;;;;21.75;61.93;100966.22;5077708;27;45487;-83
2022/08/05 01:38:45;;;;;;;;;3.25;2.00;;;;;21.55;67.10;101002.03;5096367;27;45632;-83
2022/08/05 01:41:13;;;;;;;;;3.00;3.00;;;;;21.11;67.45;100965.72;5096262;27;45539;-83
2022/08/05 01:43:40;;;;;;;;;3.25;3.25;;;;;20.97;69.19;101015.66;5096478;27;45312;-83
2022/08/05 01:46:06;;;;;;;;;2.00;2.00;;;;;20.58;69.65;101024.66;5078100;27;45410;-83
2022/08/05 01:48:35;;;;;;;;;2.25;2.25;;;;;20.68;69.94;101042.44;5077691;27;47144;-83
2022/08/05 01:51:03;;;;;;;;;3.00;2.75;;;;;20.80;68.87;101037.09;5077567;27;45355;-83
2022/08/05 01:53:30;;;;;;;;;2.75;2.25;;;;;20.68;67.41;101001.50;5096390;27;45303;-83
2022/08/05 01:56:00;;;;;;;;;4.00;3.00;;;;;20.98;66.99;101044.16;5096206;27;45346;-83
2022/08/05 01:58:27;;;;;;;;;4.50;4.50;;;;;20.84;69.25;101032.63;5095784;27;46655;-83
2022/08/05 02:00:56;;;;;;;;;3.50;3.00;;;;;20.84;67.09;101036.19;5095934;27;45417;-83
2022/08/05 02:03:32;;;;;;;;;4.00;3.00;;;;;20.91;65.69;101023.69;5096288;27;45322;-84
2022/08/05 02:06:00;;;;;;;;;3.75;2.75;;;;;21.01;66.05;101052.16;5095716;27;45338;-83
2022/08/05 02:08:26;;;;;;;;;2.25;2.25;;;;;20.93;65.75;101034.38;5095868;27;46323;-83
2022/08/05 02:10:55;;;;;;;;;4.00;4.00;;;;;20.98;65.43;101064.63;5077458;27;45314;-82
2022/08/05 02:14:02;;;;;;;;;4.00;4.00;;;;;20.84;65.74;101011.28;5077747;27;45688;-82
2022/08/05 02:16:50;;;;;;;;;3.00;3.00;;;;;21.05;65.61;101040.56;5095409;27;45414;-84
2022/08/05 02:19:27;;;;;;;;;3.25;3.25;;;;;21.09;65.05;101058.38;5095233;27;45405;-82
2022/08/05 02:22:12;;;;;;;;;4.00;4.00;;;;;21.11;65.47;101061.94;5095726;27;45489;-82
2022/08/05 02:24:40;;;;;;;;;4.75;3.75;;;;;20.83;65.65;101015.69;5095822;27;45367;-83
2022/08/05 02:27:09;;;;;;;;;4.50;4.00;;;;;21.14;65.63;101082.44;5077654;27;45656;-82
2022/08/05 02:29:36;;;;;;;;;3.00;3.00;;;;;21.00;64.36;101053.06;5095834;27;45622;-84
2022/08/05 02:32:05;;;;;;;;;4.00;3.00;;;;;21.07;64.60;101062.81;5095840;27;45355;-83
2022/08/05 02:34:33;;;;;;;;;3.00;3.00;;;;;21.00;65.02;101050.41;5095594;27;45330;-84
2022/08/05 02:37:03;;;;;;;;;3.00;3.00;;;;;20.84;65.54;101027.31;5095475;27;45553;-84
2022/08/05 02:39:33;;;;;;;;;3.75;3.25;;;;;20.94;65.16;101031.72;5094373;27;45382;-84
2022/08/05 02:42:00;;;;;;;;;4.00;3.00;;;;;20.82;64.80;100938.22;5077322;27;45789;-82
2022/08/05 02:44:28;;;;;;;;;3.25;3.00;;;;;20.85;65.50;100972.97;5095525;27;45445;-83
2022/08/05 02:46:56;;;;;;;;;3.75;3.00;;;;;20.93;64.62;101002.31;5095460;27;45544;-82
2022/08/05 02:49:23;;;;;;;;;3.00;3.00;;;;;20.97;65.27;100999.63;5095316;27;46192;-82
2022/08/05 02:51:49;;;;;;;;;3.50;2.25;;;;;20.90;65.09;100992.53;5077015;27;45893;-82
2022/08/05 02:54:15;;;;;;;;;4.00;3.75;;;;;20.80;65.30;100962.28;5095985;27;45712;-82
2022/08/05 02:56:42;;;;;;;;;3.00;3.00;;;;;20.99;65.32;101007.66;5095392;27;45433;-84
2022/08/05 02:59:10;;;;;;;;;3.00;3.00;;;;;20.77;65.29;101001.47;5076614;27;46512;-82
2022/08/05 03:01:39;;;;;;;;;3.25;3.25;;;;;20.85;65.16;101029.97;5076639;27;45563;-83
2022/08/05 03:04:07;;;;;;;;;2.25;2.25;;;;;20.89;64.74;101056.69;5095103;27;45473;-84
2022/08/05 03:06:34;;;;;;;;;5.25;4.00;;;;;20.76;65.59;101026.41;5095039;27;45437;-84
2022/08/05 03:09:00;;;;;;;;;4.50;3.75;;;;;20.73;65.39;101027.31;5094991;27;45461;-82
2022/08/05 03:11:27;;;;;;;;;3.50;2.50;;;;;20.76;65.60;101023.75;5076513;27;45569;-82
2022/08/05 03:13:53;;;;;;;;;4.00;4.00;;;;;20.85;65.68;101035.28;5095218;27;45319;-83
2022/08/05 03:16:19;;;;;;;;;3.75;3.50;;;;;20.84;65.35;101032.63;5095256;27;45371;-83
2022/08/05 03:18:45;;;;;;;;;3.00;3.00;;;;;20.87;65.23;101040.63;5094860;27;45556;-83
2022/08/05 03:21:11;;;;;;;;;4.00;4.00;;;;;20.91;65.56;101047.75;5075448;27;46488;-83
2022/08/05 03:23:39;;;;;;;;;3.25;3.00;;;;;20.91;65.10;101047.75;5094922;27;45459;-83
2022/08/05 03:26:05;;;;;;;;;6.00;5.00;;;;;20.74;65.47;101014.81;5094981;27;45584;-83
2022/08/05 03:28:30;;;;;;;;;3.50;3.50;;;;;20.84;65.51;101051.34;5094792;27;46306;-84
2022/08/05 03:30:58;;;;;;;;;4.00;4.00;;;;;20.86;65.93;101057.56;5076449;27;45431;-82
2022/08/05 03:33:26;;;;;;;;;4.00;4.00;;;;;20.91;65.94;101055.75;5076573;27;45533;-82
2022/08/05 03:35:52;;;;;;;;;4.75;4.75;;;;;20.87;66.27;101043.31;5076059;27;45554;-83
2022/08/05 03:38:17;;;;;;;;;5.50;5.00;;;;;20.94;66.12;101060.22;5076151;27;48173;-84
2022/08/05 03:40:44;;;;;;;;;2.75;2.75;;;;;20.89;66.21;101062.91;5076046;27;45537;-83
2022/08/05 03:43:10;;;;;;;;;4.00;4.00;;;;;20.75;66.05;101032.66;5094848;27;45473;-83
2022/08/05 03:45:35;;;;;;;;;4.00;3.50;;;;;20.83;65.91;101045.09;5076209;27;45576;-82
2022/08/05 03:48:01;;;;;;;;;3.75;3.25;;;;;20.92;65.94;101062.00;5094403;27;46455;-83
2022/08/05 03:50:40;;;;;;;;;3.00;3.00;;;;;20.78;65.30;101057.56;5093995;27;45377;-84
2022/08/05 03:53:12;;;;;;;;;5.00;4.25;;;;;20.85;65.98;101062.03;5094738;27;45376;-84
2022/08/05 03:55:43;;;;;;;;;3.25;2.75;;;;;20.85;65.80;101045.09;5094590;27;45592;-83
2022/08/05 03:58:15;;;;;;;;;4.50;4.00;;;;;20.79;65.86;101019.28;5075795;27;48041;-84
2022/08/05 04:00:43;;;;;;;;;4.25;4.00;;;;;20.76;65.91;101013.06;5093868;27;45948;-83
2022/08/05 04:03:11;;;;;;;;;3.00;3.00;;;;;20.77;65.79;101028.19;5094298;27;45288;-83
2022/08/05 04:05:38;;;;;;;;;3.00;3.00;;;;;20.77;66.22;101037.09;5093905;27;45473;-84
2022/08/05 04:08:06;;;;;;;;;4.00;4.00;;;;;20.68;65.90;101029.09;5094220;27;45350;-84
2022/08/05 04:10:33;;;;;;;;;3.75;3.25;;;;;20.56;65.94;101019.34;5094079;27;45389;-83
2022/08/05 04:12:59;;;;;;;;;4.00;4.00;;;;;20.75;65.57;101046.91;5094375;27;45271;-81
2022/08/05 04:15:26;;;;;;;;;4.50;4.50;;;;;20.69;65.47;101035.31;5094449;27;45614;-84
2022/08/05 04:17:53;;;;;;;;;2.75;2.50;;;;;20.74;65.89;101049.56;5075636;27;46264;-84
2022/08/05 04:20:21;;;;;;;;;3.00;3.00;;;;;20.73;66.05;101047.78;5093621;27;45905;-83
2022/08/05 04:22:47;;;;;;;;;3.50;3.00;;;;;20.54;66.06;101017.53;5094066;27;45476;-82
2022/08/05 04:25:12;;;;;;;;;4.75;3.50;;;;;20.65;66.62;101033.59;5093989;27;45477;-84
2022/08/05 04:27:38;;;;;;;;;3.00;3.00;;;;;20.40;65.87;101001.53;5093806;27;46498;-83
2022/08/05 04:30:04;;;;;;;;;3.75;3.75;;;;;20.46;65.72;101012.22;5075595;27;45385;-84
2022/08/05 04:32:30;;;;;;;;;4.50;4.00;;;;;20.52;65.92;101033.59;5093935;27;45486;-83
2022/08/05 04:34:55;;;;;;;;;5.00;5.00;;;;;20.50;66.52;101023.81;5093665;27;45372;-82
2022/08/05 04:37:20;;;;;;;;;4.00;4.00;;;;;20.51;65.92;101031.81;5093978;27;51619;-83
2022/08/05 04:39:46;;;;;;;;;4.00;3.50;;;;;20.45;66.43;101022.91;5093873;27;45476;-82
2022/08/05 04:42:11;;;;;;;;;5.00;4.00;;;;;20.47;66.45;101030.03;5075525;27;45301;-83
2022/08/05 04:44:36;;;;;;;;;4.75;4.00;;;;;20.46;66.74;101038.03;5075242;27;45300;-84
2022/08/05 04:47:02;;;;;;;;;4.00;4.00;;;;;20.33;66.83;101023.78;5093480;27;45485;-83
2022/08/05 04:49:27;;;;;;;;;4.00;4.00;;;;;20.42;66.78;101045.13;5093448;27;45317;-82
2022/08/05 04:51:53;;;;;;;;;2.00;2.00;;;;;20.41;67.22;101045.16;5093976;27;45336;-83
2022/08/05 04:54:18;;;;;;;;;4.50;4.00;;;;;20.34;67.01;101034.47;5075585;27;45526;-84
2022/08/05 04:56:44;;;;;;;;;5.00;4.25;;;;;20.35;66.78;101046.03;5093605;27;45470;-83
2022/08/05 04:59:14;;;;;;;;;5.00;4.75;;;;;20.23;67.19;101028.25;5075584;27;45567;-83
2022/08/05 05:01:40;;;;;;;;;5.50;4.75;;;;;20.32;66.79;101043.38;5094655;27;45422;-82
2022/08/05 05:04:08;;;;;;;;;4.00;4.00;;;;;20.22;66.96;101026.47;5097300;27;45632;-83
2022/08/05 05:06:34;;;;;;;;;4.00;4.00;;;;;20.33;67.47;101040.69;5078286;27;54238;-82
2022/08/05 05:08:59;;;;;;;;;4.75;4.25;;;;;20.50;67.61;101072.75;5097122;27;45431;-82
2022/08/05 05:11:24;;;;;;;;;4.67;4.00;;;;;20.63;67.23;101088.75;5096641;27;49938;-83
2022/08/05 05:13:49;;;;;;;;;4.25;4.25;;;;;20.53;66.40;101058.50;5078728;27;45476;-83
2022/08/05 05:16:15;;;;;;;;;5.00;3.75;;;;;20.57;66.13;101069.19;5096924;27;45407;-82
2022/08/05 05:18:42;;;;;;;;;4.25;3.50;;;;;20.59;66.70;101070.09;5078174;27;45407;-82
2022/08/05 05:21:07;;;;;;;;;5.00;5.00;;;;;20.49;66.17;101060.31;5078655;27;45325;-84
2022/08/05 05:23:33;;;;;;;;;5.00;4.50;;;;;20.63;66.81;101078.97;5096897;27;45478;-83
2022/08/05 05:25:58;;;;;;;;;5.50;5.00;;;;;20.53;66.73;101067.41;5096488;27;46546;-83
2022/08/05 05:28:23;;;;;;;;;5.00;4.50;;;;;20.67;66.92;101080.75;5078242;27;46124;-83
2022/08/05 05:30:48;;;;;;;;;4.00;4.00;;;;;20.53;66.76;101061.19;5096927;27;45335;-84
2022/08/05 05:33:14;;;;;;;;;4.00;4.00;;;;;20.62;67.21;101074.53;5078435;27;45534;-83
2022/08/05 05:35:39;;;;;;;;;4.50;3.25;;;;;20.69;66.58;101083.41;5096173;27;45481;-84
2022/08/05 05:38:08;;;;;;;;;4.75;3.50;;;;;20.87;66.23;101118.13;5078247;27;45602;-83
2022/08/05 05:40:33;;;;;;;;;3.25;3.25;;;;;20.78;65.95;101100.31;5078128;27;45554;-83
2022/08/05 05:42:59;;;;;;;;;4.00;4.00;;;;;20.79;66.13;101094.09;5097005;27;45426;-84
2022/08/05 05:45:25;;;;;;;;;6.00;5.25;;;;;20.81;66.43;101104.78;5096465;27;45414;-84
2022/08/05 05:47:51;;;;;;;;;4.00;4.00;;;;;20.87;66.63;101105.63;5077612;27;45928;-83
2022/08/05 05:50:18;;;;;;;;;4.25;4.25;;;;;20.95;66.19;101119.00;5096103;27;45410;-82
2022/08/05 05:52:45;;;;;;;;;4.75;4.25;;;;;20.95;65.75;101121.66;5096404;27;45673;-84
2022/08/05 05:55:12;;;;;;;;;4.50;4.00;;;;;20.90;65.66;101120.78;5096272;27;45579;-82
2022/08/05 05:57:39;;;;;;;;;4.25;3.75;;;;;20.95;66.22;101140.38;5096830;27;46129;-83
2022/08/05 06:00:09;;;;;;;;;5.00;5.00;;;;;20.86;66.26;101137.72;5077938;27;45567;-82
2022/08/05 06:02:35;;;;;;;;;4.50;4.50;;;;;20.80;66.28;101135.94;5096220;27;45340;-83
2022/08/05 06:05:00;;;;;;;;;6.75;6.00;;;;;20.70;65.74;101115.47;5095740;27;45429;-84
2022/08/05 06:07:26;;;;;;;;;5.00;4.50;;;;;20.80;66.39;101141.28;5077899;27;45568;-83
2022/08/05 06:09:51;;;;;;;;;4.00;3.75;;;;;20.66;65.69;101108.34;5096507;27;45411;-83
2022/08/05 06:12:17;;;;;;;;;5.00;4.00;;;;;20.84;65.49;101142.19;5095911;27;45453;-82
2022/08/05 06:14:43;;;;;;;;;5.75;4.00;;;;;20.93;65.50;101151.94;5094795;27;45461;-83
2022/08/05 06:17:12;;;;;;;;;6.00;5.00;;;;;20.79;66.49;101138.63;5077696;27;45642;-83
2022/08/05 06:19:38;;;;;;;;;4.00;4.00;;;;;20.82;65.26;101138.59;5095550;27;45311;-83
2022/08/05 06:22:04;;;;;;;;;3.75;3.75;;;;;20.89;66.07;101151.09;5077637;27;45589;-83
2022/08/05 06:24:30;;;;;;;;;3.50;3.50;;;;;20.83;65.49;101140.38;5095815;27;46487;-83
2022/08/05 06:26:56;;;;;;;;;4.50;4.00;;;;;20.82;65.63;101151.97;5077418;27;45886;-82
2022/08/05 06:29:22;;;;;;;;;5.25;5.00;;;;;20.71;65.90;101138.63;5077435;27;45311;-83
2022/08/05 06:31:47;;;;;;;;;2.75;2.75;;;;;20.85;66.09;101173.34;5077305;27;45366;-83
2022/08/05 06:34:12;;;;;;;;;5.25;5.00;;;;;20.67;65.50;101147.53;5095169;27;45467;-84
2022/08/05 06:36:37;;;;;;;;;7.00;5.00;;;;;20.73;66.14;101155.53;5077444;27;45557;-83
2022/08/05 06:39:03;;;;;;;;;4.50;4.50;;;;;20.65;66.21;101149.31;5095640;27;45836;-82
2022/08/05 06:41:28;;;;;;;;;4.25;4.00;;;;;20.53;66.49;101134.16;5095612;27;45384;-82
2022/08/05 06:43:53;;;;;;;;;4.00;3.75;;;;;20.71;65.98;101164.44;5095971;27;46752;-83
2022/08/05 06:46:19;;;;;;;;;5.25;4.00;;;;;20.62;65.62;101151.97;5095629;27;45423;-83
2022/08/05 06:48:44;;;;;;;;;6.00;5.25;;;;;20.74;65.94;101168.00;5095052;27;45342;-83
2022/08/05 06:51:09;;;;;;;;;4.00;4.00;;;;;20.67;66.40;101152.88;5095790;27;45569;-83
2022/08/05 06:53:35;;;;;;;;;5.50;4.50;;;;;20.69;66.22;101159.13;5095197;27;45493;-83
2022/08/05 06:56:02;;;;;;;;;5.00;5.00;;;;;20.83;65.88;101177.78;5095458;27;45382;-82
2022/08/05 06:58:28;;;;;;;;;2.00;2.00;;;;;20.82;65.47;101176.91;5095479;27;45447;-83
2022/08/05 07:00:53;;;;;;;;;4.00;3.50;;;;;20.64;65.73;101141.28;5095259;27;45566;-82
2022/08/05 07:03:19;;;;;;;;;6.00;5.25;;;;;20.82;66.02;101174.22;5095090;27;45387;-84
2022/08/05 07:05:44;;;;;;;;;4.75;4.00;;;;;20.89;65.47;101185.81;5076115;27;48479;-83
2022/08/05 07:08:10;;;;;;;;;11.50;10.50;;;;;20.76;65.49;101157.31;5095780;27;45647;-83
2022/08/05 07:10:35;;;;;;;;;4.00;4.00;;;;;20.77;65.22;101161.75;5095167;27;45556;-83
2022/08/05 07:18:29;;;;;;;;;6.75;6.50;;;;;20.89;66.33;101163.56;5094873;27;45584;-83
2022/08/05 07:20:54;;;;;;;;;5.75;5.00;;;;;20.94;66.21;101165.31;5076818;27;45287;-83
2022/08/05 07:23:19;;;;;;;;;7.00;5.75;;;;;20.75;65.11;101135.06;5095032;27;45464;-83
2022/08/05 07:25:45;;;;;;;;;5.75;5.00;;;;;20.90;65.33;101165.34;5094414;27;45444;-84
2022/08/05 07:28:10;;;;;;;;;5.75;4.75;;;;;20.92;65.60;101164.41;5095143;27;45342;-83
2022/08/05 07:30:37;;;;;;;;;6.75;5.50;;;;;21.06;65.66;101189.34;5095105;27;45315;-82
2022/08/05 07:33:04;;;;;;;;;6.25;6.00;;;;;21.09;64.99;101192.03;5094703;27;45371;-83
2022/08/05 07:35:30;;;;;;;;;4.50;4.00;;;;;21.01;65.53;101171.53;5094380;27;45857;-83
2022/08/05 07:37:55;;;;;;;;;5.25;5.00;;;;;21.24;64.79;101208.94;5094788;27;45401;-84
2022/08/05 07:40:21;;;;;;;;;6.75;6.75;;;;;21.18;65.45;101195.56;5094985;27;45348;-84
2022/08/05 07:42:47;;;;;;;;;6.50;6.00;;;;;21.20;65.35;101196.47;5094675;27;45678;-84
2022/08/05 07:45:12;;;;;;;;;4.75;4.75;;;;;21.23;64.69;101208.06;5094642;27;45800;-84
2022/08/05 07:47:40;;;;;;;;;6.00;4.50;;;;;21.23;64.67;101202.72;5094469;27;45541;-85
2022/08/05 07:50:09;;;;;;;;;5.75;5.50;;;;;21.16;65.18;101195.56;5094223;27;44802;-83
2022/08/05 07:52:39;;;;;;;;;5.25;5.00;;;;;21.23;65.00;101210.72;5094524;27;46112;-82
2022/08/05 07:55:06;;;;;;;;;5.25;5.00;;;;;21.31;66.23;101224.09;5094549;27;45485;-82
2022/08/05 07:57:31;;;;;;;;;6.25;5.00;;;;;21.18;65.65;101199.16;5094437;27;45449;-83
2022/08/05 07:59:57;;;;;;;;;5.25;5.00;;;;;21.27;65.86;101208.91;5094676;27;45608;-84
2022/08/05 08:02:26;;;;;;;;;5.00;5.00;;;;;21.26;65.98;101199.13;5075691;27;46873;-83
2022/08/05 08:04:51;;;;;;;;;6.00;5.75;;;;;21.40;65.87;101216.06;5094167;27;45506;-84
2022/08/05 08:07:17;;;;;;;;;5.00;5.00;;;;;21.57;65.64;101232.94;5094571;27;45802;-83
2022/08/05 08:09:43;;;;;;;;;6.00;6.00;;;;;21.63;65.18;101234.72;5094244;27;45430;-83
2022/08/05 08:12:08;;;;;;;;;6.25;5.75;;;;;21.52;64.90;101212.44;5094272;27;46233;-84
2022/08/05 08:14:33;;;;;;;;;6.25;5.75;;;;;21.50;64.87;101204.44;5075814;27;45401;-83
2022/08/05 08:16:59;;;;;;;;;4.00;4.00;;;;;21.70;64.99;101236.47;5094333;27;45525;-83
2022/08/05 08:19:24;;;;;;;;;5.00;5.00;;;;;21.77;64.67;101242.69;5093913;27;45486;-82
2022/08/05 08:21:49;;;;;;;;;5.00;4.00;;;;;21.73;64.91;101227.56;5094021;27;45675;-83
2022/08/05 08:24:15;;;;;;;;;4.00;3.75;;;;;21.72;64.80;101215.06;5094151;27;52059;-83
2022/08/05 08:26:40;;;;;;;;;5.75;5.75;;;;;21.85;64.69;101235.53;5075462;27;48570;-83
2022/08/05 08:29:05;;;;;;;;;5.00;4.50;;;;;21.96;64.32;101246.19;5094015;27;45504;-84
2022/08/05 08:31:30;;;;;;;;;6.00;6.00;;;;;22.00;64.30;101251.53;5094100;27;46546;-84
2022/08/05 08:33:56;;;;;;;;;4.00;4.00;;;;;21.92;63.63;101236.38;5094035;27;46484;-83
2022/08/05 08:36:21;;;;;;;;;5.00;4.25;;;;;21.98;63.77;101237.28;5094217;27;45360;-83
2022/08/05 08:38:46;;;;;;;;;5.00;5.00;;;;;22.03;63.84;101243.50;5097522;27;45409;-80
2022/08/05 08:41:14;;;;;;;;;7.75;7.00;;;;;22.12;63.44;101254.19;5097358;27;45497;-84
2022/08/05 08:43:40;;;;;;;;;5.25;5.25;;;;;22.12;63.00;101253.31;5079111;27;46047;-83
2022/08/05 08:46:06;;;;;;;;;5.50;4.50;;;;;22.18;63.15;101260.41;5097761;27;45403;-81
2022/08/05 08:48:32;;;;;;;;;7.00;6.00;;;;;22.26;63.03;101264.81;5097375;27;45640;-85
2022/08/05 08:50:58;;;;;;;;;5.50;5.00;;;;;22.39;63.41;101279.03;5096964;27;46081;-84
2022/08/05 08:53:27;;;;;;;;;8.00;6.75;;;;;22.38;62.66;101271.91;5097694;27;45623;-83
2022/08/05 08:55:52;;;;;;;;;3.50;3.25;;;;;22.44;62.34;101279.91;5097452;27;45389;-84
2022/08/05 08:58:18;;;;;;;;;7.50;6.75;;;;;22.44;62.19;101266.50;5097326;27;45383;-83
2022/08/05 09:00:45;;;;;;;;;7.75;7.50;;;;;22.53;62.43;101269.13;5097069;27;46188;-84
2022/08/05 09:03:11;;;;;;;;;5.00;5.00;;;;;22.64;62.67;101278.00;5097069;27;45852;-83
2022/08/05 09:05:36;;;;;;;;;7.25;6.25;;;;;22.67;62.08;101269.94;5096902;27;45302;-83
2022/08/05 09:08:02;;;;;;;;;7.25;7.00;;;;;22.67;60.97;101269.94;5097320;27;45568;-83
2022/08/05 09:10:27;;;;;;;;;8.50;7.50;;;;;22.79;60.74;101293.06;5096976;27;46241;-83
2022/08/05 09:12:53;;;;;;;;;8.25;7.00;;;;;22.82;61.33;101294.88;5096718;27;45484;-84
2022/08/05 09:15:19;;;;;;;;;3.50;3.25;;;;;22.78;59.70;101285.94;5097125;27;45485;-82
2022/08/05 09:17:44;;;;;;;;;7.50;6.00;;;;;22.75;60.21;101275.22;5097094;27;45212;-82
2022/08/05 09:20:12;;;;;;;;;5.00;5.00;;;;;22.79;60.25;101289.50;5097241;27;46589;-82
2022/08/05 09:23:13;;;;;;;;;6.00;6.00;;;;;22.94;59.94;101297.47;5096506;27;45445;-83
2022/08/05 09:25:44;;;;;;;;;6.00;6.00;;;;;22.88;59.40;101284.09;5074099;27;45418;-83
2022/08/05 09:28:14;;;;;;;;;4.75;4.75;;;;;22.98;59.61;101293.88;5096859;27;45529;-84
2022/08/05 09:30:57;;;;;;;;;6.00;6.00;;;;;23.01;59.27;101298.34;5096713;27;45610;-79
2022/08/05 09:33:24;;;;;;;;;5.00;3.75;;;;;22.99;58.27;101292.06;5096869;27;45993;-85
2022/08/05 09:36:07;;;;;;;;;4.00;3.00;;;;;22.88;57.59;101263.56;5096549;27;45462;-83
2022/08/05 09:38:32;;;;;;;;;5.50;5.00;;;;;23.02;57.59;101282.22;5096829;27;45549;-83
2022/08/05 09:41:03;;;;;;;;;3.75;3.25;;;;;23.01;57.59;101276.88;5078090;27;46203;-83
2022/08/05 09:43:34;;;;;;;;;6.50;6.00;;;;;23.01;56.46;101293.88;5096577;27;45355;-84
2022/08/05 09:46:01;;;;;;;;;4.75;4.50;;;;;23.07;56.82;101298.28;5096900;27;45473;-83
2022/08/05 09:48:29;;;;;;;;;6.25;5.50;;;;;23.16;56.78;101312.50;5096106;27;45467;-84
2022/08/05 09:50:57;;;;;;;;;5.25;5.25;;;;;23.14;56.91;101298.19;5077460;27;47623;-84
2022/08/05 09:53:23;;;;;;;;;5.75;5.00;;;;;23.15;56.47;101289.28;5096437;27;45328;-83
2022/08/05 09:55:57;;;;;;;;;4.75;4.00;;;;;23.23;56.18;101312.44;5096534;27;45303;-85
2022/08/05 09:58:24;;;;;;;;;7.00;6.00;;;;;23.26;55.93;101313.31;5073534;27;45497;-83
2022/08/05 10:01:01;;;;;;;;;6.75;6.00;;;;;23.28;55.94;101310.63;5095964;27;46373;-85
2022/08/05 10:03:28;;;;;;;;;7.00;7.00;;;;;23.29;56.03;101290.94;5096591;27;45570;-83
2022/08/05 10:06:06;;;;;;;;;5.00;4.50;;;;;23.37;56.17;101305.16;5095661;27;45373;-84
2022/08/05 10:08:31;;;;;;;;;5.50;5.50;;;;;23.40;55.80;101294.41;5078087;27;45290;-84
2022/08/05 10:10:57;;;;;;;;;5.75;5.25;;;;;23.55;55.16;101307.69;5095803;27;45355;-82
2022/08/05 10:13:30;;;;;;;;;6.25;6.25;;;;;23.59;55.55;101306.72;5096020;27;45313;-83
2022/08/05 10:15:57;;;;;;;;;5.75;5.75;;;;;23.62;55.29;101298.66;5096501;27;45799;-84
2022/08/05 10:18:24;;;;;;;;;4.50;4.00;;;;;23.67;54.69;101301.31;5096186;27;46106;-82
2022/08/05 10:21:01;;;;;;;;;5.50;4.75;;;;;23.84;54.41;101314.56;5095885;27;46238;-84
2022/08/05 10:23:29;;;;;;;;;6.75;5.75;;;;;23.76;54.54;101292.28;5095847;27;45428;-83
2022/08/05 10:25:57;;;;;;;;;5.00;5.00;;;;;23.94;53.89;101302.84;5095925;27;45484;-84
2022/08/05 10:28:23;;;;;;;;;6.25;6.25;;;;;23.76;54.08;101271.72;5077404;27;45704;-83
2022/08/05 10:30:50;;;;;;;;;7.00;6.25;;;;;24.07;53.97;101309.81;5095510;27;46462;-82
2022/08/05 10:33:16;;;;;;;;;6.75;6.25;;;;;24.17;53.58;101319.53;5095524;27;45426;-83
2022/08/05 10:35:41;;;;;;;;;7.25;7.00;;;;;24.11;53.26;101283.81;5095036;27;45407;-83
2022/08/05 10:38:07;;;;;;;;;7.50;7.00;;;;;24.22;53.12;101286.34;5095631;27;45655;-83
2022/08/05 10:41:02;;;;;;;;;7.50;7.25;;;;;24.43;53.50;101318.34;5095127;27;45415;-84
2022/08/05 10:43:46;;;;;;;;;9.25;7.50;;;;;24.47;52.62;101311.13;5091194;27;45509;-84
2022/08/05 10:46:15;;;;;;;;;10.00;9.50;;;;;24.48;52.31;101300.34;5095172;27;45496;-84
2022/08/05 10:48:42;;;;;;;;;10.00;8.00;;;;;24.63;52.29;101308.22;5094883;27;45467;-84
2022/08/05 10:51:10;;;;;;;;;8.75;8.75;;;;;24.65;51.89;101292.97;5094565;27;46063;-84
2022/08/05 10:53:40;;;;;;;;;9.25;8.50;;;;;24.81;51.66;101314.22;5094855;27;45440;-84
2022/08/05 10:56:08;;;;;;;;;9.00;9.00;;;;;24.82;51.30;101313.31;5095120;27;45355;-85
2022/08/05 10:58:35;;;;;;;;;8.25;8.25;;;;;24.87;51.31;101314.13;5077110;27;45660;-83
2022/08/05 11:01:05;;;;;;;;;8.50;8.50;;;;;24.82;51.20;101298.06;5094322;27;45501;-85
2022/08/05 11:03:31;;;;;;;;;8.75;8.75;;;;;24.88;51.33;101289.03;5095297;27;45939;-83
2022/08/05 11:06:12;;;;;;;;;10.00;8.50;;;;;25.02;50.61;101286.09;5094709;27;45314;-83
2022/08/05 11:08:37;;;;;;;;;8.00;8.00;;;;;25.28;50.40;101313.50;5095199;27;45366;-83
2022/08/05 11:11:32;;;;;;;;;9.75;9.50;;;;;25.37;50.18;101324.13;5094764;27;46484;-83
2022/08/05 11:13:59;;;;;;;;;7.50;7.50;;;;;25.28;48.98;101305.44;5095114;27;45257;-85
2022/08/05 11:16:25;;;;;;;;;10.00;9.50;;;;;25.34;48.75;101301.75;5095244;27;45325;-83
2022/08/05 11:19:28;;;;;;;;;8.00;8.00;;;;;25.55;49.28;101333.66;5076628;27;45328;-83
2022/08/05 11:21:55;;;;;;;;;8.00;8.00;;;;;25.64;48.56;101319.16;5094426;27;46347;-85
2022/08/05 11:24:22;;;;;;;;;7.00;7.00;;;;;25.87;48.51;101321.44;5094650;27;45534;-85
2022/08/05 11:26:48;;;;;;;;;8.25;8.00;;;;;26.02;47.76;101313.06;5094920;27;45420;-85
2022/08/05 11:29:41;;;;;;;;;9.00;9.00;;;;;26.18;47.79;101316.31;5076286;27;45527;-84
2022/08/05 11:32:26;;;;;;;;;9.75;9.00;;;;;26.09;47.11;101300.34;5071462;27;47304;-83
2022/08/05 11:34:53;;;;;;;;;7.00;7.00;;;;;26.03;46.99;101322.03;5076379;27;45497;-84